createdAt,value
2022-07-25T00:03:32.590Z,24.17
2022-07-25T00:08:54.324Z,24.15
2022-07-25T00:14:16.206Z,24.14
2022-07-25T00:19:38.647Z,24.13
2022-07-25T00:25:00.481Z,24.12
2022-07-25T00:30:22.318Z,24.12
2022-07-25T00:35:44.243Z,24.12
2022-07-25T00:41:06.150Z,24.11
2022-07-25T00:46:28.013Z,24.11
2022-07-25T00:51:50.580Z,24.12
2022-07-25T00:57:12.327Z,24.11
2022-07-25T01:02:34.151Z,24.10
2022-07-25T01:07:56.134Z,24.10
2022-07-25T01:13:17.937Z,24.10
2022-07-25T01:18:42.522Z,24.09
2022-07-25T01:24:04.647Z,24.09
2022-07-25T01:29:26.711Z,24.09
2022-07-25T01:34:48.411Z,24.08
2022-07-25T01:40:10.363Z,24.09
2022-07-25T01:45:32.121Z,24.08
2022-07-25T01:50:53.867Z,24.08
2022-07-25T01:56:16.025Z,24.07
2022-07-25T02:01:37.821Z,24.08
2022-07-25T02:06:59.604Z,24.07
2022-07-25T02:12:21.363Z,24.07
2022-07-25T02:17:43.110Z,24.07
2022-07-25T02:23:05.221Z,24.07
2022-07-25T02:28:27.238Z,24.06
2022-07-25T02:33:49.038Z,24.06
2022-07-25T02:39:10.695Z,24.05
2022-07-25T02:44:32.393Z,24.04
2022-07-25T02:49:54.160Z,24.04
2022-07-25T02:55:15.977Z,24.04
2022-07-25T03:00:37.868Z,24.05
2022-07-25T03:05:59.610Z,24.04
2022-07-25T03:11:21.401Z,24.04
2022-07-25T03:16:43.085Z,24.04
2022-07-25T03:22:04.864Z,24.03
2022-07-25T03:27:27.083Z,24.03
2022-07-25T03:32:49.814Z,24.03
2022-07-25T03:38:11.494Z,24.03
2022-07-25T03:43:33.234Z,24.02
2022-07-25T03:48:55.733Z,24.02
2022-07-25T03:54:17.529Z,24.03
2022-07-25T03:59:40.401Z,24.02
2022-07-25T04:05:02.144Z,24.00
2022-07-25T04:10:23.833Z,24.01
2022-07-25T04:15:45.659Z,24.01
2022-07-25T04:21:08.434Z,24.00
2022-07-25T04:26:31.056Z,24.00
2022-07-25T04:31:52.907Z,23.99
2022-07-25T04:37:14.707Z,23.98
2022-07-25T04:42:36.455Z,23.97
2022-07-25T04:47:58.311Z,23.98
2022-07-25T04:53:20.060Z,23.98
2022-07-25T04:58:41.988Z,23.97
2022-07-25T05:04:03.982Z,23.97
2022-07-25T05:09:26.111Z,23.97
2022-07-25T05:14:47.906Z,23.96
2022-07-25T05:20:10.372Z,23.95
2022-07-25T05:25:32.478Z,23.94
2022-07-25T05:30:54.191Z,23.92
2022-07-25T05:36:17.030Z,23.89
2022-07-25T05:41:38.829Z,23.86
2022-07-25T05:47:00.795Z,23.83
2022-07-25T05:52:22.873Z,23.77
2022-07-25T05:57:44.659Z,23.75
2022-07-25T06:03:06.427Z,23.71
2022-07-25T06:08:30.929Z,23.67
2022-07-25T06:13:52.959Z,23.66
2022-07-25T06:19:14.745Z,23.66
2022-07-25T06:24:36.542Z,23.64
2022-07-25T06:29:58.581Z,23.61
2022-07-25T06:35:20.434Z,23.60
2022-07-25T06:40:42.164Z,23.59
2022-07-25T06:46:03.964Z,23.58
2022-07-25T06:51:26.140Z,23.58
2022-07-25T06:56:47.927Z,23.58
2022-07-25T07:02:09.600Z,23.58
2022-07-25T07:07:31.384Z,23.64
2022-07-25T07:13:03.954Z,23.73
2022-07-25T07:18:30.186Z,23.77
2022-07-25T07:23:52.037Z,23.84
2022-07-25T07:29:15.518Z,23.91
2022-07-25T07:34:37.471Z,23.90
2022-07-25T07:39:59.172Z,23.90
2022-07-25T07:45:23.566Z,23.95
2022-07-25T07:50:45.281Z,23.97
2022-07-25T07:56:07.755Z,24.05
2022-07-25T08:01:29.582Z,24.09
2022-07-25T08:06:51.358Z,24.11
2022-07-25T08:12:13.177Z,24.10
2022-07-25T08:17:34.987Z,24.10
2022-07-25T08:22:57.237Z,24.10
2022-07-25T08:28:19.244Z,24.11
2022-07-25T08:33:40.965Z,24.11
2022-07-25T08:39:02.669Z,24.14
2022-07-25T08:44:31.147Z,24.17
2022-07-25T08:49:53.613Z,24.19
2022-07-25T08:55:20.240Z,24.17
2022-07-25T09:00:42.851Z,24.15
2022-07-25T09:06:20.150Z,24.14
2022-07-25T09:11:42.059Z,24.14
2022-07-25T09:17:07.097Z,24.15
2022-07-25T09:22:45.388Z,24.14
2022-07-25T09:28:12.301Z,24.15
2022-07-25T09:33:34.159Z,24.15
2022-07-25T09:39:01.296Z,24.16
2022-07-25T09:44:23.319Z,24.15
2022-07-25T09:49:47.597Z,24.16
2022-07-25T09:55:11.132Z,24.17
2022-07-25T10:00:33.040Z,24.15
2022-07-25T10:06:25.165Z,24.16
2022-07-25T10:12:07.074Z,24.17
2022-07-25T10:17:28.805Z,24.17
2022-07-25T10:22:58.459Z,24.17
2022-07-25T10:28:20.506Z,24.19
2022-07-25T10:33:43.156Z,24.21
2022-07-25T10:39:09.235Z,24.23
2022-07-25T10:44:42.878Z,24.25
2022-07-25T10:50:34.794Z,24.24
2022-07-25T10:56:05.644Z,24.25
2022-07-25T11:01:32.770Z,24.24
2022-07-25T11:06:54.960Z,24.24
2022-07-25T11:12:16.915Z,24.25
2022-07-25T11:17:38.622Z,24.25
2022-07-25T11:23:00.344Z,24.30
2022-07-25T11:28:22.065Z,24.32
2022-07-25T11:33:47.535Z,24.31
2022-07-25T11:39:10.189Z,24.32
2022-07-25T11:44:35.038Z,24.31
2022-07-25T11:50:00.053Z,24.32
2022-07-25T11:55:29.239Z,24.32
2022-07-25T12:00:51.016Z,24.32
2022-07-25T12:06:13.096Z,24.32
2022-07-25T12:11:34.812Z,24.31
2022-07-25T12:16:56.569Z,24.30
2022-07-25T12:22:18.361Z,24.30
2022-07-25T12:27:40.619Z,24.30
2022-07-25T12:33:02.591Z,24.31
2022-07-25T12:38:24.378Z,24.32
2022-07-25T12:43:46.078Z,24.33
2022-07-25T12:49:08.162Z,24.33
2022-07-25T12:54:30.363Z,24.34
2022-07-25T12:59:52.153Z,24.33
2022-07-25T13:05:14.114Z,24.33
2022-07-25T13:10:35.915Z,24.35
2022-07-25T13:15:58.786Z,24.34
2022-07-25T13:21:21.147Z,24.35
2022-07-25T13:26:42.910Z,24.37
2022-07-25T13:32:05.024Z,24.39
2022-07-25T13:37:27.867Z,24.39
2022-07-25T13:42:49.527Z,24.40
2022-07-25T13:48:29.105Z,24.41
2022-07-25T13:53:51.525Z,24.41
2022-07-25T13:59:20.369Z,24.43
2022-07-25T14:04:43.201Z,24.43
2022-07-25T14:10:07.748Z,24.47
2022-07-25T14:15:29.586Z,24.47
2022-07-25T14:20:51.396Z,24.47
2022-07-25T14:26:13.175Z,24.46
2022-07-25T14:31:34.942Z,24.45
2022-07-25T14:36:56.828Z,24.46
2022-07-25T14:42:18.615Z,24.46
2022-07-25T14:47:41.843Z,24.48
2022-07-25T14:53:03.687Z,24.48
2022-07-25T14:58:25.378Z,24.50
2022-07-25T15:03:47.103Z,24.51
2022-07-25T15:09:09.454Z,24.50
2022-07-25T15:14:31.474Z,24.51
2022-07-25T15:19:53.161Z,24.50
2022-07-25T15:25:57.959Z,24.51
2022-07-25T15:30:56.690Z,24.51
2022-07-25T15:36:19.700Z,24.52
2022-07-25T15:41:41.703Z,24.52
2022-07-25T15:47:04.024Z,24.53
2022-07-25T15:52:26.769Z,24.53
2022-07-25T15:57:48.495Z,24.49
2022-07-25T16:03:11.456Z,24.42
2022-07-25T16:08:36.008Z,24.41
2022-07-25T16:13:57.707Z,24.38
2022-07-25T16:19:19.411Z,24.39
2022-07-25T16:24:41.310Z,24.45
2022-07-25T16:30:03.364Z,24.48
2022-07-25T16:35:25.127Z,24.52
2022-07-25T16:40:46.889Z,24.56
2022-07-25T16:46:08.746Z,24.61
2022-07-25T16:51:34.180Z,24.61
2022-07-25T16:56:59.915Z,24.60
2022-07-25T17:02:27.614Z,24.58
2022-07-25T17:07:57.062Z,24.57
2022-07-25T17:13:20.587Z,24.52
2022-07-25T17:18:42.369Z,24.52
2022-07-25T17:24:04.380Z,24.49
2022-07-25T17:29:26.450Z,24.48
2022-07-25T17:34:48.259Z,24.51
2022-07-25T17:40:10.829Z,24.53
2022-07-25T17:45:32.654Z,24.55
2022-07-25T17:50:54.422Z,24.57
2022-07-25T17:56:16.288Z,24.60
2022-07-25T18:01:38.144Z,24.62
2022-07-25T18:06:59.945Z,24.66
2022-07-25T18:12:26.027Z,24.65
2022-07-25T18:17:50.850Z,24.65
2022-07-25T18:23:13.058Z,24.66
2022-07-25T18:28:36.542Z,24.63
2022-07-25T18:33:58.427Z,24.61
2022-07-25T18:39:20.222Z,24.60
2022-07-25T18:44:42.107Z,24.60
2022-07-25T18:50:05.118Z,24.60
2022-07-25T18:55:26.954Z,24.60
2022-07-25T19:00:48.750Z,24.58
2022-07-25T19:06:10.978Z,24.57
2022-07-25T19:11:38.871Z,24.57
2022-07-25T19:17:04.226Z,24.58
2022-07-25T19:22:25.969Z,24.57
2022-07-25T19:27:48.776Z,24.57
2022-07-25T19:33:10.588Z,24.57
2022-07-25T19:38:32.621Z,24.57
2022-07-25T19:43:54.950Z,24.56
2022-07-25T19:49:17.389Z,24.56
2022-07-25T19:54:39.158Z,24.51
2022-07-25T20:00:00.899Z,24.51
2022-07-25T20:05:22.643Z,24.49
2022-07-25T20:10:45.023Z,24.47
2022-07-25T20:16:06.886Z,24.46
2022-07-25T20:21:29.762Z,24.45
2022-07-25T20:26:51.477Z,24.43
2022-07-25T20:32:13.293Z,24.41
2022-07-25T20:37:35.703Z,24.40
2022-07-25T20:42:57.450Z,24.39
2022-07-25T20:48:19.161Z,24.37
2022-07-25T20:53:42.031Z,24.37
2022-07-25T20:59:04.384Z,24.37
2022-07-25T21:04:26.320Z,24.34
2022-07-25T21:09:48.045Z,24.34
2022-07-25T21:15:10.294Z,24.34
2022-07-25T21:20:32.038Z,24.33
2022-07-25T21:25:53.736Z,24.32
2022-07-25T21:31:17.727Z,24.31
2022-07-25T21:36:39.951Z,24.30
2022-07-25T21:42:02.164Z,24.29
2022-07-25T21:47:23.852Z,24.27
2022-07-25T21:52:45.709Z,24.27
2022-07-25T21:58:08.291Z,24.27
2022-07-25T22:03:30.046Z,24.26
2022-07-25T22:08:51.747Z,24.25
2022-07-25T22:14:14.307Z,24.25
2022-07-25T22:19:36.342Z,24.22
2022-07-25T22:24:58.099Z,24.22
2022-07-25T22:30:20.008Z,24.21
2022-07-25T22:35:41.752Z,24.21
2022-07-25T22:41:03.530Z,24.19
2022-07-25T22:46:25.769Z,24.19
2022-07-25T22:51:47.645Z,24.18
2022-07-25T22:57:09.345Z,24.17
2022-07-25T23:02:31.129Z,24.17
2022-07-25T23:07:52.919Z,24.16
2022-07-25T23:13:14.665Z,24.15
2022-07-25T23:18:36.398Z,24.14
2022-07-25T23:24:00.122Z,24.14
2022-07-25T23:29:21.896Z,24.12
2022-07-25T23:34:44.148Z,24.11
2022-07-25T23:40:06.840Z,24.11
2022-07-25T23:45:28.722Z,24.11
2022-07-25T23:50:50.419Z,24.11
2022-07-25T23:56:13.470Z,24.10
